Le Grand, Iowa
Current Conditions -  °F | °C
As of 3:53 AM on Sunday 25 Jan 2015 (Local Time) from KMIW Reporting Station
Light Rain Light Rain  
Wind Chill: 29°   Ceiling: 2000
Heat Index: 36°   Visibility: 6mi
Dew Point: 34°   Wind: 9mph
Humidity: 93%   Direction: 10°N
Pressure: 29.57"   Gusts: NA
Location:  42.01°N, 92.78°W
Report Text: KMIW 250953Z AUTO 01008KT 6SM -RA BR BKN020 OVC024 02/01 A2957 RMK AO2 SLP020 P0009 T00220011
Loading
Personal Weather Stations






























Interactive Weather Map New forecast layout! Learn more

10-Day Weather Forecast

Advertisements
Track Severe Weather on mobile